sensor_id;sensor_type;location;lat;lon;timestamp;P1;durP1;ratioP1;P2;durP2;ratioP2
5674;SDS011;2860;54.284;10.158;2023-04-15T00:00:27;13.57;;;10.95;;
5674;SDS011;2860;54.284;10.158;2023-04-15T00:02:53;11.80;;;10.57;;
5674;SDS011;2860;54.284;10.158;2023-04-15T00:05:19;11.65;;;9.10;;
5674;SDS011;2860;54.284;10.158;2023-04-15T00:07:45;15.23;;;11.13;;
5674;SDS011;2860;54.284;10.158;2023-04-15T00:10:11;14.50;;;10.73;;
5674;SDS011;2860;54.284;10.158;2023-04-15T00:12:37;10.95;;;9.40;;
5674;SDS011;2860;54.284;10.158;2023-04-15T00:15:02;17.73;;;12.73;;
5674;SDS011;2860;54.284;10.158;2023-04-15T00:17:28;15.27;;;10.77;;
5674;SDS011;2860;54.284;10.158;2023-04-15T00:19:54;14.65;;;11.25;;
5674;SDS011;2860;54.284;10.158;2023-04-15T00:22:20;13.57;;;11.20;;
5674;SDS011;2860;54.284;10.158;2023-04-15T00:24:46;14.68;;;11.27;;
5674;SDS011;2860;54.284;10.158;2023-04-15T00:27:12;17.02;;;12.27;;
5674;SDS011;2860;54.284;10.158;2023-04-15T00:29:37;14.60;;;11.70;;
5674;SDS011;2860;54.284;10.158;2023-04-15T00:32:03;14.02;;;11.77;;
5674;SDS011;2860;54.284;10.158;2023-04-15T00:34:29;13.85;;;12.32;;
5674;SDS011;2860;54.284;10.158;2023-04-15T00:36:54;17.20;;;11.98;;
5674;SDS011;2860;54.284;10.158;2023-04-15T00:39:21;17.05;;;12.35;;
5674;SDS011;2860;54.284;10.158;2023-04-15T00:41:46;14.07;;;12.02;;
5674;SDS011;2860;54.284;10.158;2023-04-15T00:44:13;20.27;;;12.80;;
5674;SDS011;2860;54.284;10.158;2023-04-15T00:46:38;19.23;;;12.73;;
5674;SDS011;2860;54.284;10.158;2023-04-15T00:49:05;15.68;;;12.73;;
5674;SDS011;2860;54.284;10.158;2023-04-15T00:51:32;16.55;;;12.68;;
5674;SDS011;2860;54.284;10.158;2023-04-15T00:54:00;16.52;;;11.65;;
5674;SDS011;2860;54.284;10.158;2023-04-15T00:56:29;16.58;;;12.55;;
5674;SDS011;2860;54.284;10.158;2023-04-15T00:58:55;13.80;;;11.48;;
5674;SDS011;2860;54.284;10.158;2023-04-15T01:01:21;15.52;;;11.73;;
5674;SDS011;2860;54.284;10.158;2023-04-15T01:03:49;18.25;;;12.63;;
5674;SDS011;2860;54.284;10.158;2023-04-15T01:06:15;17.85;;;12.25;;
5674;SDS011;2860;54.284;10.158;2023-04-15T01:08:41;13.55;;;11.77;;
5674;SDS011;2860;54.284;10.158;2023-04-15T01:11:07;18.77;;;11.90;;
5674;SDS011;2860;54.284;10.158;2023-04-15T01:13:33;18.23;;;11.35;;
5674;SDS011;2860;54.284;10.158;2023-04-15T01:16:00;13.98;;;12.27;;
5674;SDS011;2860;54.284;10.158;2023-04-15T01:18:27;17.95;;;12.98;;
5674;SDS011;2860;54.284;10.158;2023-04-15T01:20:53;16.88;;;13.82;;
5674;SDS011;2860;54.284;10.158;2023-04-15T01:23:19;22.05;;;12.77;;
5674;SDS011;2860;54.284;10.158;2023-04-15T01:25:46;18.92;;;13.43;;
5674;SDS011;2860;54.284;10.158;2023-04-15T01:28:13;19.70;;;14.38;;
5674;SDS011;2860;54.284;10.158;2023-04-15T01:30:39;19.60;;;13.20;;
5674;SDS011;2860;54.284;10.158;2023-04-15T01:33:04;21.48;;;14.57;;
5674;SDS011;2860;54.284;10.158;2023-04-15T01:35:30;24.50;;;14.68;;
5674;SDS011;2860;54.284;10.158;2023-04-15T01:37:57;21.60;;;14.77;;
5674;SDS011;2860;54.284;10.158;2023-04-15T01:40:30;25.70;;;15.73;;
5674;SDS011;2860;54.284;10.158;2023-04-15T01:42:56;25.23;;;15.35;;
5674;SDS011;2860;54.284;10.158;2023-04-15T01:45:21;29.75;;;16.77;;
5674;SDS011;2860;54.284;10.158;2023-04-15T01:47:47;20.17;;;14.25;;
5674;SDS011;2860;54.284;10.158;2023-04-15T01:50:13;26.40;;;15.60;;
5674;SDS011;2860;54.284;10.158;2023-04-15T01:52:39;24.38;;;15.30;;
5674;SDS011;2860;54.284;10.158;2023-04-15T01:55:05;24.73;;;15.82;;
5674;SDS011;2860;54.284;10.158;2023-04-15T01:57:32;26.98;;;15.18;;
5674;SDS011;2860;54.284;10.158;2023-04-15T01:59:57;30.15;;;17.08;;
5674;SDS011;2860;54.284;10.158;2023-04-15T02:02:23;27.33;;;16.55;;
5674;SDS011;2860;54.284;10.158;2023-04-15T02:04:48;35.13;;;16.90;;
5674;SDS011;2860;54.284;10.158;2023-04-15T02:07:14;28.13;;;16.65;;
5674;SDS011;2860;54.284;10.158;2023-04-15T02:09:39;31.13;;;17.77;;
5674;SDS011;2860;54.284;10.158;2023-04-15T02:12:05;46.33;;;18.05;;
5674;SDS011;2860;54.284;10.158;2023-04-15T02:14:31;33.90;;;18.55;;
5674;SDS011;2860;54.284;10.158;2023-04-15T02:16:56;43.15;;;18.65;;
5674;SDS011;2860;54.284;10.158;2023-04-15T02:19:22;34.67;;;18.98;;
5674;SDS011;2860;54.284;10.158;2023-04-15T02:21:47;30.63;;;17.42;;
5674;SDS011;2860;54.284;10.158;2023-04-15T02:24:13;30.80;;;16.75;;
5674;SDS011;2860;54.284;10.158;2023-04-15T02:26:38;31.77;;;15.88;;
5674;SDS011;2860;54.284;10.158;2023-04-15T02:29:04;27.17;;;16.98;;
5674;SDS011;2860;54.284;10.158;2023-04-15T02:31:29;27.48;;;17.15;;
5674;SDS011;2860;54.284;10.158;2023-04-15T02:33:57;24.20;;;15.50;;
5674;SDS011;2860;54.284;10.158;2023-04-15T02:36:24;26.30;;;15.35;;
5674;SDS011;2860;54.284;10.158;2023-04-15T02:38:50;22.70;;;14.27;;
5674;SDS011;2860;54.284;10.158;2023-04-15T02:41:16;26.63;;;15.98;;
5674;SDS011;2860;54.284;10.158;2023-04-15T02:43:42;23.13;;;14.52;;
5674;SDS011;2860;54.284;10.158;2023-04-15T02:46:08;21.95;;;14.52;;
5674;SDS011;2860;54.284;10.158;2023-04-15T02:48:36;22.55;;;15.40;;
5674;SDS011;2860;54.284;10.158;2023-04-15T02:51:14;24.63;;;14.70;;
5674;SDS011;2860;54.284;10.158;2023-04-15T02:53:43;19.77;;;13.63;;
5674;SDS011;2860;54.284;10.158;2023-04-15T02:56:09;18.83;;;14.32;;
5674;SDS011;2860;54.284;10.158;2023-04-15T02:58:35;28.02;;;15.70;;
5674;SDS011;2860;54.284;10.158;2023-04-15T03:01:01;28.70;;;16.35;;
5674;SDS011;2860;54.284;10.158;2023-04-15T03:03:26;24.13;;;15.63;;
5674;SDS011;2860;54.284;10.158;2023-04-15T03:05:52;31.02;;;18.05;;
5674;SDS011;2860;54.284;10.158;2023-04-15T03:08:18;26.30;;;16.50;;
5674;SDS011;2860;54.284;10.158;2023-04-15T03:10:45;28.17;;;14.95;;
5674;SDS011;2860;54.284;10.158;2023-04-15T03:13:11;28.08;;;17.52;;
5674;SDS011;2860;54.284;10.158;2023-04-15T03:15:36;25.67;;;17.15;;
5674;SDS011;2860;54.284;10.158;2023-04-15T03:18:02;33.92;;;17.50;;
5674;SDS011;2860;54.284;10.158;2023-04-15T03:20:27;37.40;;;18.55;;
5674;SDS011;2860;54.284;10.158;2023-04-15T03:22:53;24.63;;;14.98;;
5674;SDS011;2860;54.284;10.158;2023-04-15T03:25:18;24.75;;;16.05;;
5674;SDS011;2860;54.284;10.158;2023-04-15T03:27:44;33.58;;;17.40;;
5674;SDS011;2860;54.284;10.158;2023-04-15T03:30:10;33.90;;;18.92;;
5674;SDS011;2860;54.284;10.158;2023-04-15T03:32:36;30.38;;;18.48;;
5674;SDS011;2860;54.284;10.158;2023-04-15T03:35:01;33.55;;;19.52;;
5674;SDS011;2860;54.284;10.158;2023-04-15T03:37:27;29.95;;;19.67;;
5674;SDS011;2860;54.284;10.158;2023-04-15T03:39:53;35.67;;;20.20;;
5674;SDS011;2860;54.284;10.158;2023-04-15T03:42:18;36.63;;;21.52;;
5674;SDS011;2860;54.284;10.158;2023-04-15T03:44:44;43.03;;;21.98;;
5674;SDS011;2860;54.284;10.158;2023-04-15T03:47:09;36.53;;;20.50;;
5674;SDS011;2860;54.284;10.158;2023-04-15T03:49:35;41.75;;;23.40;;
5674;SDS011;2860;54.284;10.158;2023-04-15T03:52:01;44.30;;;24.55;;
5674;SDS011;2860;54.284;10.158;2023-04-15T03:54:26;34.53;;;22.02;;
5674;SDS011;2860;54.284;10.158;2023-04-15T03:56:52;56.33;;;26.20;;
5674;SDS011;2860;54.284;10.158;2023-04-15T03:59:17;49.92;;;25.42;;
5674;SDS011;2860;54.284;10.158;2023-04-15T04:01:43;48.15;;;27.02;;
5674;SDS011;2860;54.284;10.158;2023-04-15T04:04:08;77.28;;;29.35;;
5674;SDS011;2860;54.284;10.158;2023-04-15T04:06:34;46.38;;;25.08;;
5674;SDS011;2860;54.284;10.158;2023-04-15T04:09:00;53.45;;;27.20;;
5674;SDS011;2860;54.284;10.158;2023-04-15T04:11:25;67.82;;;26.02;;
5674;SDS011;2860;54.284;10.158;2023-04-15T04:13:52;41.50;;;20.80;;
5674;SDS011;2860;54.284;10.158;2023-04-15T04:16:18;58.92;;;27.20;;
5674;SDS011;2860;54.284;10.158;2023-04-15T04:18:43;63.10;;;29.80;;
5674;SDS011;2860;54.284;10.158;2023-04-15T04:21:09;53.67;;;29.13;;
5674;SDS011;2860;54.284;10.158;2023-04-15T04:23:35;57.20;;;30.08;;
5674;SDS011;2860;54.284;10.158;2023-04-15T04:26:01;53.33;;;29.45;;
5674;SDS011;2860;54.284;10.158;2023-04-15T04:28:26;60.08;;;30.38;;
5674;SDS011;2860;54.284;10.158;2023-04-15T04:30:52;60.75;;;31.13;;
5674;SDS011;2860;54.284;10.158;2023-04-15T04:33:17;60.22;;;32.45;;
5674;SDS011;2860;54.284;10.158;2023-04-15T04:35:43;58.25;;;31.65;;
5674;SDS011;2860;54.284;10.158;2023-04-15T04:38:08;48.45;;;28.50;;
5674;SDS011;2860;54.284;10.158;2023-04-15T04:40:34;53.78;;;29.83;;
5674;SDS011;2860;54.284;10.158;2023-04-15T04:43:00;54.97;;;32.40;;
5674;SDS011;2860;54.284;10.158;2023-04-15T04:45:25;56.63;;;31.67;;
5674;SDS011;2860;54.284;10.158;2023-04-15T04:47:51;55.78;;;31.55;;
5674;SDS011;2860;54.284;10.158;2023-04-15T04:50:16;60.13;;;32.65;;
5674;SDS011;2860;54.284;10.158;2023-04-15T04:52:42;58.80;;;29.77;;
5674;SDS011;2860;54.284;10.158;2023-04-15T04:55:07;51.45;;;30.98;;
5674;SDS011;2860;54.284;10.158;2023-04-15T04:57:33;52.55;;;30.73;;
5674;SDS011;2860;54.284;10.158;2023-04-15T05:00:03;58.08;;;30.75;;
5674;SDS011;2860;54.284;10.158;2023-04-15T05:02:30;63.17;;;30.77;;
5674;SDS011;2860;54.284;10.158;2023-04-15T05:04:56;57.10;;;30.77;;
5674;SDS011;2860;54.284;10.158;2023-04-15T05:07:21;52.80;;;31.50;;
5674;SDS011;2860;54.284;10.158;2023-04-15T05:09:47;57.50;;;29.75;;
5674;SDS011;2860;54.284;10.158;2023-04-15T05:12:13;61.55;;;34.30;;
5674;SDS011;2860;54.284;10.158;2023-04-15T05:14:38;58.22;;;32.60;;
5674;SDS011;2860;54.284;10.158;2023-04-15T05:17:07;61.25;;;33.92;;
5674;SDS011;2860;54.284;10.158;2023-04-15T05:19:32;56.35;;;32.25;;
5674;SDS011;2860;54.284;10.158;2023-04-15T05:21:58;63.45;;;32.78;;
5674;SDS011;2860;54.284;10.158;2023-04-15T05:24:24;64.50;;;35.88;;
5674;SDS011;2860;54.284;10.158;2023-04-15T05:26:50;57.95;;;32.72;;
5674;SDS011;2860;54.284;10.158;2023-04-15T05:29:15;67.40;;;35.33;;
5674;SDS011;2860;54.284;10.158;2023-04-15T05:31:41;61.80;;;32.70;;
5674;SDS011;2860;54.284;10.158;2023-04-15T05:34:07;68.22;;;34.58;;
5674;SDS011;2860;54.284;10.158;2023-04-15T05:36:32;62.30;;;35.03;;
5674;SDS011;2860;54.284;10.158;2023-04-15T05:38:58;58.40;;;34.65;;
5674;SDS011;2860;54.284;10.158;2023-04-15T05:41:23;71.45;;;37.17;;
5674;SDS011;2860;54.284;10.158;2023-04-15T05:43:49;71.03;;;40.10;;
5674;SDS011;2860;54.284;10.158;2023-04-15T05:46:14;62.58;;;39.42;;
5674;SDS011;2860;54.284;10.158;2023-04-15T05:48:40;74.35;;;39.60;;
5674;SDS011;2860;54.284;10.158;2023-04-15T05:51:05;66.78;;;39.83;;
5674;SDS011;2860;54.284;10.158;2023-04-15T05:53:31;67.53;;;37.70;;
5674;SDS011;2860;54.284;10.158;2023-04-15T05:55:56;68.97;;;39.13;;
5674;SDS011;2860;54.284;10.158;2023-04-15T05:58:22;69.28;;;41.50;;
5674;SDS011;2860;54.284;10.158;2023-04-15T06:00:47;72.07;;;41.58;;
5674;SDS011;2860;54.284;10.158;2023-04-15T06:03:13;83.43;;;51.73;;
5674;SDS011;2860;54.284;10.158;2023-04-15T06:05:39;74.28;;;43.80;;
5674;SDS011;2860;54.284;10.158;2023-04-15T06:08:05;73.53;;;42.50;;
5674;SDS011;2860;54.284;10.158;2023-04-15T06:10:30;74.97;;;40.65;;
5674;SDS011;2860;54.284;10.158;2023-04-15T06:13:00;66.43;;;40.50;;
5674;SDS011;2860;54.284;10.158;2023-04-15T06:15:27;76.95;;;41.80;;
5674;SDS011;2860;54.284;10.158;2023-04-15T06:17:52;74.22;;;40.92;;
5674;SDS011;2860;54.284;10.158;2023-04-15T06:20:18;69.97;;;39.20;;
5674;SDS011;2860;54.284;10.158;2023-04-15T06:22:43;72.40;;;39.58;;
5674;SDS011;2860;54.284;10.158;2023-04-15T06:25:09;77.55;;;40.17;;
5674;SDS011;2860;54.284;10.158;2023-04-15T06:27:34;73.32;;;40.70;;
5674;SDS011;2860;54.284;10.158;2023-04-15T06:30:00;66.25;;;38.70;;
5674;SDS011;2860;54.284;10.158;2023-04-15T06:32:26;59.42;;;37.40;;
5674;SDS011;2860;54.284;10.158;2023-04-15T06:34:51;68.05;;;39.95;;
5674;SDS011;2860;54.284;10.158;2023-04-15T06:37:17;72.93;;;40.30;;
5674;SDS011;2860;54.284;10.158;2023-04-15T06:39:42;64.30;;;38.63;;
5674;SDS011;2860;54.284;10.158;2023-04-15T06:42:08;61.88;;;40.83;;
5674;SDS011;2860;54.284;10.158;2023-04-15T06:44:35;68.18;;;39.20;;
5674;SDS011;2860;54.284;10.158;2023-04-15T06:47:01;65.55;;;37.60;;
5674;SDS011;2860;54.284;10.158;2023-04-15T06:49:26;65.70;;;36.83;;
5674;SDS011;2860;54.284;10.158;2023-04-15T06:51:52;57.67;;;37.13;;
5674;SDS011;2860;54.284;10.158;2023-04-15T06:54:18;70.35;;;38.30;;
5674;SDS011;2860;54.284;10.158;2023-04-15T06:56:43;58.45;;;36.90;;
5674;SDS011;2860;54.284;10.158;2023-04-15T06:59:09;64.70;;;38.25;;
5674;SDS011;2860;54.284;10.158;2023-04-15T07:01:34;71.28;;;38.50;;
5674;SDS011;2860;54.284;10.158;2023-04-15T07:04:00;59.65;;;36.55;;
5674;SDS011;2860;54.284;10.158;2023-04-15T07:06:25;60.42;;;37.50;;
5674;SDS011;2860;54.284;10.158;2023-04-15T07:08:51;66.88;;;36.88;;
5674;SDS011;2860;54.284;10.158;2023-04-15T07:11:17;61.08;;;36.63;;
5674;SDS011;2860;54.284;10.158;2023-04-15T07:13:43;60.15;;;37.00;;
5674;SDS011;2860;54.284;10.158;2023-04-15T07:16:08;58.95;;;34.97;;
5674;SDS011;2860;54.284;10.158;2023-04-15T07:18:34;55.10;;;36.15;;
5674;SDS011;2860;54.284;10.158;2023-04-15T07:20:59;56.25;;;36.60;;
5674;SDS011;2860;54.284;10.158;2023-04-15T07:23:25;55.92;;;34.33;;
5674;SDS011;2860;54.284;10.158;2023-04-15T07:25:51;52.88;;;35.50;;
5674;SDS011;2860;54.284;10.158;2023-04-15T07:28:17;54.00;;;36.53;;
5674;SDS011;2860;54.284;10.158;2023-04-15T07:30:42;51.88;;;33.53;;
5674;SDS011;2860;54.284;10.158;2023-04-15T07:33:08;50.45;;;32.72;;
5674;SDS011;2860;54.284;10.158;2023-04-15T07:35:33;47.38;;;33.45;;
5674;SDS011;2860;54.284;10.158;2023-04-15T07:37:59;50.85;;;33.78;;
5674;SDS011;2860;54.284;10.158;2023-04-15T07:40:24;60.15;;;33.83;;
5674;SDS011;2860;54.284;10.158;2023-04-15T07:42:50;54.58;;;34.08;;
5674;SDS011;2860;54.284;10.158;2023-04-15T07:45:16;57.00;;;33.80;;
5674;SDS011;2860;54.284;10.158;2023-04-15T07:47:41;55.67;;;31.80;;
5674;SDS011;2860;54.284;10.158;2023-04-15T07:50:07;58.63;;;33.90;;
5674;SDS011;2860;54.284;10.158;2023-04-15T07:52:35;62.20;;;33.92;;
5674;SDS011;2860;54.284;10.158;2023-04-15T07:55:04;61.05;;;33.80;;
5674;SDS011;2860;54.284;10.158;2023-04-15T07:57:32;51.33;;;32.80;;
5674;SDS011;2860;54.284;10.158;2023-04-15T07:59:58;51.05;;;32.58;;
5674;SDS011;2860;54.284;10.158;2023-04-15T08:02:24;62.72;;;36.42;;
5674;SDS011;2860;54.284;10.158;2023-04-15T08:04:50;50.85;;;34.80;;
5674;SDS011;2860;54.284;10.158;2023-04-15T08:07:17;49.10;;;33.70;;
5674;SDS011;2860;54.284;10.158;2023-04-15T08:09:42;56.50;;;31.85;;
5674;SDS011;2860;54.284;10.158;2023-04-15T08:12:08;50.35;;;32.60;;
5674;SDS011;2860;54.284;10.158;2023-04-15T08:14:36;45.50;;;31.35;;
5674;SDS011;2860;54.284;10.158;2023-04-15T08:17:02;47.72;;;31.23;;
5674;SDS011;2860;54.284;10.158;2023-04-15T08:19:28;38.70;;;29.88;;
5674;SDS011;2860;54.284;10.158;2023-04-15T08:21:54;40.65;;;30.10;;
5674;SDS011;2860;54.284;10.158;2023-04-15T08:24:20;45.58;;;31.45;;
5674;SDS011;2860;54.284;10.158;2023-04-15T08:29:21;39.83;;;28.95;;
5674;SDS011;2860;54.284;10.158;2023-04-15T08:31:47;42.95;;;30.20;;
5674;SDS011;2860;54.284;10.158;2023-04-15T08:34:12;40.15;;;30.17;;
5674;SDS011;2860;54.284;10.158;2023-04-15T08:36:38;44.63;;;30.25;;
5674;SDS011;2860;54.284;10.158;2023-04-15T08:39:04;42.30;;;30.75;;
5674;SDS011;2860;54.284;10.158;2023-04-15T08:41:33;44.97;;;31.13;;
5674;SDS011;2860;54.284;10.158;2023-04-15T08:44:08;40.20;;;30.63;;
5674;SDS011;2860;54.284;10.158;2023-04-15T08:46:34;40.92;;;29.40;;
5674;SDS011;2860;54.284;10.158;2023-04-15T08:49:02;46.72;;;27.90;;
5674;SDS011;2860;54.284;10.158;2023-04-15T08:51:28;42.47;;;30.33;;
5674;SDS011;2860;54.284;10.158;2023-04-15T08:53:55;44.88;;;30.65;;
5674;SDS011;2860;54.284;10.158;2023-04-15T08:56:24;37.45;;;27.98;;
5674;SDS011;2860;54.284;10.158;2023-04-15T08:58:52;42.00;;;29.55;;
5674;SDS011;2860;54.284;10.158;2023-04-15T09:01:17;40.53;;;28.48;;
5674;SDS011;2860;54.284;10.158;2023-04-15T09:03:43;40.67;;;28.33;;
5674;SDS011;2860;54.284;10.158;2023-04-15T09:06:12;39.60;;;27.55;;
5674;SDS011;2860;54.284;10.158;2023-04-15T09:08:39;39.53;;;29.05;;
5674;SDS011;2860;54.284;10.158;2023-04-15T09:11:05;37.10;;;28.08;;
5674;SDS011;2860;54.284;10.158;2023-04-15T09:13:31;36.58;;;27.75;;
5674;SDS011;2860;54.284;10.158;2023-04-15T09:15:56;39.53;;;27.95;;
5674;SDS011;2860;54.284;10.158;2023-04-15T09:18:28;38.88;;;28.42;;
5674;SDS011;2860;54.284;10.158;2023-04-15T09:20:55;34.83;;;25.60;;
5674;SDS011;2860;54.284;10.158;2023-04-15T09:23:29;36.33;;;26.45;;
5674;SDS011;2860;54.284;10.158;2023-04-15T09:25:55;34.67;;;25.48;;
5674;SDS011;2860;54.284;10.158;2023-04-15T09:28:24;32.50;;;27.20;;
5674;SDS011;2860;54.284;10.158;2023-04-15T09:30:51;35.97;;;26.67;;
5674;SDS011;2860;54.284;10.158;2023-04-15T09:33:20;35.22;;;25.17;;
5674;SDS011;2860;54.284;10.158;2023-04-15T09:35:55;29.30;;;25.38;;
5674;SDS011;2860;54.284;10.158;2023-04-15T09:38:22;33.45;;;25.80;;
5674;SDS011;2860;54.284;10.158;2023-04-15T09:40:48;29.73;;;25.30;;
5674;SDS011;2860;54.284;10.158;2023-04-15T09:43:13;31.40;;;24.23;;
5674;SDS011;2860;54.284;10.158;2023-04-15T09:45:46;27.00;;;23.13;;
5674;SDS011;2860;54.284;10.158;2023-04-15T09:48:17;27.27;;;23.10;;
5674;SDS011;2860;54.284;10.158;2023-04-15T09:50:44;29.42;;;24.00;;
5674;SDS011;2860;54.284;10.158;2023-04-15T09:53:09;26.27;;;22.60;;
5674;SDS011;2860;54.284;10.158;2023-04-15T09:55:38;29.33;;;23.30;;
5674;SDS011;2860;54.284;10.158;2023-04-15T09:58:20;26.75;;;22.77;;
5674;SDS011;2860;54.284;10.158;2023-04-15T10:00:47;25.42;;;22.10;;
5674;SDS011;2860;54.284;10.158;2023-04-15T10:03:16;25.17;;;22.00;;
5674;SDS011;2860;54.284;10.158;2023-04-15T10:05:47;24.55;;;21.73;;
5674;SDS011;2860;54.284;10.158;2023-04-15T10:08:18;25.13;;;21.02;;
5674;SDS011;2860;54.284;10.158;2023-04-15T10:10:46;29.85;;;23.42;;
5674;SDS011;2860;54.284;10.158;2023-04-15T10:13:19;23.70;;;21.27;;
5674;SDS011;2860;54.284;10.158;2023-04-15T10:18:20;26.88;;;21.80;;
5674;SDS011;2860;54.284;10.158;2023-04-15T10:20:49;28.45;;;21.30;;
5674;SDS011;2860;54.284;10.158;2023-04-15T10:23:15;24.33;;;21.77;;
5674;SDS011;2860;54.284;10.158;2023-04-15T10:25:42;24.30;;;21.77;;
5674;SDS011;2860;54.284;10.158;2023-04-15T10:28:10;22.38;;;19.75;;
5674;SDS011;2860;54.284;10.158;2023-04-15T10:30:35;29.38;;;22.75;;
5674;SDS011;2860;54.284;10.158;2023-04-15T10:33:02;29.80;;;23.30;;
5674;SDS011;2860;54.284;10.158;2023-04-15T10:35:31;24.10;;;21.15;;
5674;SDS011;2860;54.284;10.158;2023-04-15T10:38:00;25.75;;;22.83;;
5674;SDS011;2860;54.284;10.158;2023-04-15T10:40:29;27.75;;;22.85;;
5674;SDS011;2860;54.284;10.158;2023-04-15T10:43:05;25.05;;;22.40;;
5674;SDS011;2860;54.284;10.158;2023-04-15T10:45:31;23.20;;;20.77;;
5674;SDS011;2860;54.284;10.158;2023-04-15T10:48:00;24.42;;;21.15;;
5674;SDS011;2860;54.284;10.158;2023-04-15T10:50:29;25.35;;;21.13;;
5674;SDS011;2860;54.284;10.158;2023-04-15T10:52:56;26.38;;;22.75;;
5674;SDS011;2860;54.284;10.158;2023-04-15T10:55:23;24.40;;;21.95;;
5674;SDS011;2860;54.284;10.158;2023-04-15T10:57:51;29.60;;;26.30;;
5674;SDS011;2860;54.284;10.158;2023-04-15T11:00:18;24.50;;;22.13;;
5674;SDS011;2860;54.284;10.158;2023-04-15T11:05:16;24.52;;;21.60;;
5674;SDS011;2860;54.284;10.158;2023-04-15T11:12:46;28.55;;;22.08;;
5674;SDS011;2860;54.284;10.158;2023-04-15T11:18:17;24.83;;;22.23;;
5674;SDS011;2860;54.284;10.158;2023-04-15T11:20:47;24.50;;;21.42;;
5674;SDS011;2860;54.284;10.158;2023-04-15T11:23:27;24.20;;;21.77;;
5674;SDS011;2860;54.284;10.158;2023-04-15T11:26:04;26.17;;;23.45;;
5674;SDS011;2860;54.284;10.158;2023-04-15T11:28:33;24.98;;;22.20;;
5674;SDS011;2860;54.284;10.158;2023-04-15T11:31:09;24.90;;;22.30;;
5674;SDS011;2860;54.284;10.158;2023-04-15T11:33:35;25.92;;;23.17;;
5674;SDS011;2860;54.284;10.158;2023-04-15T11:36:01;27.10;;;24.17;;
5674;SDS011;2860;54.284;10.158;2023-04-15T11:38:28;28.38;;;24.70;;
5674;SDS011;2860;54.284;10.158;2023-04-15T11:40:53;28.58;;;25.30;;
5674;SDS011;2860;54.284;10.158;2023-04-15T11:43:19;26.33;;;23.42;;
5674;SDS011;2860;54.284;10.158;2023-04-15T11:45:50;29.40;;;23.58;;
5674;SDS011;2860;54.284;10.158;2023-04-15T11:48:30;26.65;;;21.88;;
5674;SDS011;2860;54.284;10.158;2023-04-15T11:50:58;27.30;;;23.30;;
5674;SDS011;2860;54.284;10.158;2023-04-15T11:53:46;25.58;;;22.92;;
5674;SDS011;2860;54.284;10.158;2023-04-15T11:56:20;28.13;;;22.83;;
5674;SDS011;2860;54.284;10.158;2023-04-15T11:58:47;26.15;;;23.38;;
5674;SDS011;2860;54.284;10.158;2023-04-15T12:01:14;24.10;;;21.60;;
5674;SDS011;2860;54.284;10.158;2023-04-15T12:03:41;25.40;;;22.20;;
5674;SDS011;2860;54.284;10.158;2023-04-15T12:06:08;25.88;;;22.92;;
5674;SDS011;2860;54.284;10.158;2023-04-15T12:13:55;33.85;;;24.45;;
5674;SDS011;2860;54.284;10.158;2023-04-15T12:16:22;29.05;;;24.05;;
5674;SDS011;2860;54.284;10.158;2023-04-15T12:18:52;25.17;;;22.73;;
5674;SDS011;2860;54.284;10.158;2023-04-15T12:21:22;23.90;;;21.42;;
5674;SDS011;2860;54.284;10.158;2023-04-15T12:26:27;22.58;;;20.10;;
5674;SDS011;2860;54.284;10.158;2023-04-15T12:29:01;24.13;;;21.77;;
5674;SDS011;2860;54.284;10.158;2023-04-15T12:31:28;26.00;;;23.02;;
5674;SDS011;2860;54.284;10.158;2023-04-15T12:33:54;24.58;;;22.17;;
5674;SDS011;2860;54.284;10.158;2023-04-15T12:36:23;25.08;;;22.40;;
5674;SDS011;2860;54.284;10.158;2023-04-15T12:38:49;25.92;;;23.05;;
5674;SDS011;2860;54.284;10.158;2023-04-15T12:41:15;29.63;;;21.48;;
5674;SDS011;2860;54.284;10.158;2023-04-15T12:43:40;25.40;;;22.73;;
5674;SDS011;2860;54.284;10.158;2023-04-15T12:46:08;31.17;;;24.92;;
5674;SDS011;2860;54.284;10.158;2023-04-15T12:48:34;27.40;;;23.00;;
5674;SDS011;2860;54.284;10.158;2023-04-15T12:50:59;26.27;;;23.55;;
5674;SDS011;2860;54.284;10.158;2023-04-15T12:53:25;26.35;;;23.45;;
5674;SDS011;2860;54.284;10.158;2023-04-15T12:55:52;24.35;;;21.92;;
5674;SDS011;2860;54.284;10.158;2023-04-15T12:58:18;27.02;;;24.25;;
5674;SDS011;2860;54.284;10.158;2023-04-15T13:00:43;26.17;;;23.38;;
5674;SDS011;2860;54.284;10.158;2023-04-15T13:03:09;26.98;;;24.15;;
5674;SDS011;2860;54.284;10.158;2023-04-15T13:05:34;25.50;;;22.80;;
5674;SDS011;2860;54.284;10.158;2023-04-15T13:08:01;28.55;;;23.83;;
5674;SDS011;2860;54.284;10.158;2023-04-15T13:10:28;27.10;;;24.42;;
5674;SDS011;2860;54.284;10.158;2023-04-15T13:12:53;26.05;;;23.45;;
5674;SDS011;2860;54.284;10.158;2023-04-15T13:15:20;26.10;;;23.33;;
5674;SDS011;2860;54.284;10.158;2023-04-15T13:17:46;24.02;;;21.73;;
5674;SDS011;2860;54.284;10.158;2023-04-15T13:20:12;24.52;;;22.20;;
5674;SDS011;2860;54.284;10.158;2023-04-15T13:22:38;24.55;;;22.20;;
5674;SDS011;2860;54.284;10.158;2023-04-15T13:25:03;27.58;;;21.33;;
5674;SDS011;2860;54.284;10.158;2023-04-15T13:27:29;25.95;;;23.23;;
5674;SDS011;2860;54.284;10.158;2023-04-15T13:29:55;25.33;;;22.33;;
5674;SDS011;2860;54.284;10.158;2023-04-15T13:32:21;25.02;;;21.25;;
5674;SDS011;2860;54.284;10.158;2023-04-15T13:34:47;23.65;;;21.38;;
5674;SDS011;2860;54.284;10.158;2023-04-15T13:37:12;23.88;;;21.55;;
5674;SDS011;2860;54.284;10.158;2023-04-15T13:39:38;24.45;;;22.02;;
5674;SDS011;2860;54.284;10.158;2023-04-15T13:42:03;23.77;;;21.38;;
5674;SDS011;2860;54.284;10.158;2023-04-15T13:44:29;21.42;;;19.23;;
5674;SDS011;2860;54.284;10.158;2023-04-15T13:46:54;24.00;;;21.38;;
5674;SDS011;2860;54.284;10.158;2023-04-15T13:49:20;24.58;;;21.88;;
5674;SDS011;2860;54.284;10.158;2023-04-15T13:51:46;23.20;;;20.60;;
5674;SDS011;2860;54.284;10.158;2023-04-15T13:54:11;24.13;;;21.73;;
5674;SDS011;2860;54.284;10.158;2023-04-15T13:56:37;24.73;;;21.77;;
5674;SDS011;2860;54.284;10.158;2023-04-15T13:59:02;23.30;;;21.02;;
5674;SDS011;2860;54.284;10.158;2023-04-15T14:01:28;23.98;;;21.48;;
5674;SDS011;2860;54.284;10.158;2023-04-15T14:03:54;24.23;;;21.85;;
5674;SDS011;2860;54.284;10.158;2023-04-15T14:06:19;24.27;;;21.77;;
5674;SDS011;2860;54.284;10.158;2023-04-15T14:08:45;24.30;;;21.80;;
5674;SDS011;2860;54.284;10.158;2023-04-15T14:11:11;25.88;;;22.58;;
5674;SDS011;2860;54.284;10.158;2023-04-15T14:13:36;24.17;;;21.52;;
5674;SDS011;2860;54.284;10.158;2023-04-15T14:16:02;23.15;;;20.90;;
5674;SDS011;2860;54.284;10.158;2023-04-15T14:18:28;21.80;;;19.63;;
5674;SDS011;2860;54.284;10.158;2023-04-15T14:20:54;24.63;;;22.20;;
5674;SDS011;2860;54.284;10.158;2023-04-15T14:23:20;22.95;;;20.50;;
5674;SDS011;2860;54.284;10.158;2023-04-15T14:25:46;24.80;;;22.17;;
5674;SDS011;2860;54.284;10.158;2023-04-15T14:28:11;23.52;;;20.88;;
5674;SDS011;2860;54.284;10.158;2023-04-15T14:30:37;23.23;;;20.88;;
5674;SDS011;2860;54.284;10.158;2023-04-15T14:33:02;24.65;;;22.13;;
5674;SDS011;2860;54.284;10.158;2023-04-15T14:35:28;23.80;;;21.50;;
5674;SDS011;2860;54.284;10.158;2023-04-15T14:37:54;24.27;;;21.73;;
5674;SDS011;2860;54.284;10.158;2023-04-15T14:40:20;24.27;;;21.70;;
5674;SDS011;2860;54.284;10.158;2023-04-15T14:42:46;25.25;;;22.13;;
5674;SDS011;2860;54.284;10.158;2023-04-15T14:45:11;22.58;;;20.27;;
5674;SDS011;2860;54.284;10.158;2023-04-15T14:47:37;25.40;;;21.30;;
5674;SDS011;2860;54.284;10.158;2023-04-15T14:50:03;27.15;;;21.27;;
5674;SDS011;2860;54.284;10.158;2023-04-15T14:52:31;23.48;;;21.17;;
5674;SDS011;2860;54.284;10.158;2023-04-15T14:55:02;23.85;;;20.30;;